Metar Aviation Weather Data     EGKA Shoreham Airport
Temperature
11°C Temperature
9°C Dewpoint
88% Humidity



Wind
10 MPH
16 KM/H
4 M/S
9 KTS



260°
W
Current Conditions

Partly Cloudy Partly Cloudy
Pressure 1022.01 (hPa) - 30.18 (inHg)
Visibility 6 (mile) - 9.7 (km)
Airport
Airport-code EGKA

Location: Shoreham Airport
Distance: 9 (mi)

Metar:
EGKA 131850Z 26009KT 9999 FEW015 11/09 Q1022

Time: 13-04-2024 19:50 BST